createdAt,value
2018-10-07T00:00:32.917Z,34.60
2018-10-07T00:01:32.913Z,50.20
2018-10-07T00:02:32.917Z,51.30
2018-10-07T00:03:32.913Z,59.60
2018-10-07T00:04:32.925Z,109.50
2018-10-07T00:05:32.913Z,89.00
2018-10-07T00:06:32.911Z,68.10
2018-10-07T00:07:32.933Z,41.90
2018-10-07T00:08:32.906Z,43.80
2018-10-07T00:09:32.906Z,32.50
2018-10-07T00:10:32.900Z,50.20
2018-10-07T00:11:32.900Z,39.40
2018-10-07T00:12:32.903Z,35.70
2018-10-07T00:13:32.902Z,87.20
2018-10-07T00:14:32.902Z,87.40
2018-10-07T00:15:32.901Z,70.80
2018-10-07T00:16:32.891Z,21.70
2018-10-07T00:17:33.253Z,37.30
2018-10-07T00:18:33.028Z,117.90
2018-10-07T00:19:33.672Z,68.30
2018-10-07T00:20:32.886Z,81.70
2018-10-07T00:21:32.883Z,34.30
2018-10-07T00:22:32.882Z,32.30
2018-10-07T00:23:32.897Z,43.20
2018-10-07T00:24:32.896Z,96.90
2018-10-07T00:25:32.880Z,89.20
2018-10-07T00:26:32.875Z,63.00
2018-10-07T00:27:32.876Z,45.10
2018-10-07T00:28:32.874Z,28.30
2018-10-07T00:29:32.869Z,15.50
2018-10-07T00:30:32.874Z,23.70
2018-10-07T00:31:32.869Z,22.70
2018-10-07T00:32:32.865Z,15.10
2018-10-07T00:33:32.867Z,33.10
2018-10-07T00:34:32.865Z,43.50
2018-10-07T00:35:32.896Z,28.80
2018-10-07T00:36:32.859Z,25.30
2018-10-07T00:37:32.858Z,8.10
2018-10-07T00:38:32.856Z,8.80
2018-10-07T00:39:32.855Z,29.80
2018-10-07T00:40:32.852Z,60.80
2018-10-07T00:41:32.852Z,46.50
2018-10-07T00:42:32.853Z,29.00
2018-10-07T00:43:32.847Z,22.60
2018-10-07T00:44:32.856Z,18.30
2018-10-07T00:45:32.843Z,17.40
2018-10-07T00:46:32.843Z,15.20
2018-10-07T00:47:32.843Z,79.30
2018-10-07T00:48:32.841Z,28.50
2018-10-07T00:49:32.838Z,27.50
2018-10-07T00:50:32.833Z,29.40
2018-10-07T00:51:32.832Z,73.40
2018-10-07T00:52:32.831Z,18.50
2018-10-07T00:53:32.831Z,12.60
2018-10-07T00:54:32.827Z,20.90
2018-10-07T00:55:32.828Z,16.80
2018-10-07T00:56:32.823Z,17.60
2018-10-07T00:57:32.822Z,20.60
2018-10-07T00:58:32.821Z,19.60
2018-10-07T00:59:32.820Z,9.90
2018-10-07T01:00:32.820Z,35.00
2018-10-07T01:01:32.819Z,30.00
2018-10-07T01:02:32.813Z,17.10
2018-10-07T01:03:32.817Z,34.00
2018-10-07T01:04:32.809Z,61.30
2018-10-07T01:05:32.812Z,77.10
2018-10-07T01:06:32.808Z,30.40
2018-10-07T01:07:32.807Z,78.70
2018-10-07T01:08:32.826Z,36.60
2018-10-07T01:09:32.802Z,62.30
2018-10-07T01:10:32.797Z,43.40
2018-10-07T01:11:32.800Z,24.80
2018-10-07T01:12:32.795Z,19.80
2018-10-07T01:13:32.795Z,15.60
2018-10-07T01:14:32.790Z,9.40
2018-10-07T01:15:32.788Z,8.20
2018-10-07T01:16:32.788Z,10.30
2018-10-07T01:17:32.784Z,9.20
2018-10-07T01:18:32.783Z,17.10
2018-10-07T01:19:32.785Z,23.80
2018-10-07T01:20:32.776Z,31.40
2018-10-07T01:21:32.783Z,29.40
2018-10-07T01:22:32.773Z,16.20
2018-10-07T01:23:32.775Z,19.90
2018-10-07T01:24:32.776Z,15.40
2018-10-07T01:25:32.767Z,14.30
2018-10-07T01:26:32.767Z,29.70
2018-10-07T01:27:32.766Z,66.60
2018-10-07T01:28:32.762Z,24.20
2018-10-07T01:29:32.800Z,8.90
2018-10-07T01:30:32.803Z,25.40
2018-10-07T01:31:32.757Z,8.50
2018-10-07T01:32:32.754Z,7.30
2018-10-07T01:33:32.805Z,7.70
2018-10-07T01:34:32.800Z,14.70
2018-10-07T01:35:32.750Z,102.30
2018-10-07T01:36:32.754Z,24.40
2018-10-07T01:37:32.746Z,14.70
2018-10-07T01:38:32.746Z,64.80
2018-10-07T01:39:32.740Z,30.80
2018-10-07T01:40:32.761Z,24.70
2018-10-07T01:41:32.742Z,30.50
2018-10-07T01:42:32.734Z,22.60
2018-10-07T01:43:32.733Z,14.50
2018-10-07T01:44:32.728Z,18.80
2018-10-07T01:45:32.726Z,28.90
2018-10-07T01:46:32.727Z,25.90
2018-10-07T01:47:32.726Z,10.20
2018-10-07T01:48:32.724Z,18.40
2018-10-07T01:49:32.748Z,20.70
2018-10-07T01:50:32.718Z,12.10
2018-10-07T01:51:32.717Z,11.40
2018-10-07T01:52:32.715Z,13.90
2018-10-07T01:53:32.712Z,11.80
2018-10-07T01:54:32.709Z,11.00
2018-10-07T01:55:32.713Z,10.00
2018-10-07T01:56:32.705Z,10.10
2018-10-07T01:57:32.703Z,8.60
2018-10-07T01:58:32.751Z,8.10
2018-10-07T01:59:32.758Z,9.20
2018-10-07T02:00:32.696Z,8.80
2018-10-07T02:01:32.700Z,8.00
2018-10-07T02:02:32.692Z,7.90
2018-10-07T02:03:32.690Z,8.40
2018-10-07T02:04:32.691Z,15.00
2018-10-07T02:05:32.769Z,9.80
2018-10-07T02:06:32.686Z,8.00
2018-10-07T02:07:32.685Z,15.70
2018-10-07T02:08:32.683Z,35.80
2018-10-07T02:09:32.678Z,20.80
2018-10-07T02:10:32.678Z,52.70
2018-10-07T02:11:32.676Z,12.30
2018-10-07T02:12:32.670Z,12.50
2018-10-07T02:13:32.675Z,13.00
2018-10-07T02:14:32.666Z,18.60
2018-10-07T02:15:32.672Z,7.60
2018-10-07T02:16:32.662Z,8.30
2018-10-07T02:17:32.693Z,11.30
2018-10-07T02:18:32.656Z,41.80
2018-10-07T02:19:32.659Z,19.90
2018-10-07T02:20:32.651Z,12.00
2018-10-07T02:21:32.646Z,10.90
2018-10-07T02:22:32.645Z,14.70
2018-10-07T02:23:32.643Z,19.20
2018-10-07T02:24:32.641Z,20.80
2018-10-07T02:25:32.637Z,22.50
2018-10-07T02:26:32.641Z,15.80
2018-10-07T02:27:32.633Z,13.10
2018-10-07T02:28:32.635Z,8.50
2018-10-07T02:29:32.628Z,18.60
2018-10-07T02:30:32.632Z,18.80
2018-10-07T02:31:32.627Z,17.10
2018-10-07T02:32:32.622Z,12.90
2018-10-07T02:33:32.617Z,10.80
2018-10-07T02:34:32.615Z,7.80
2018-10-07T02:35:32.614Z,7.80
2018-10-07T02:36:32.611Z,7.10
2018-10-07T02:37:32.609Z,7.20
2018-10-07T02:38:32.605Z,7.00
2018-10-07T02:39:32.604Z,7.20
2018-10-07T02:40:32.604Z,7.10
2018-10-07T02:41:32.599Z,6.90
2018-10-07T02:42:32.594Z,7.10
2018-10-07T02:43:32.594Z,7.30
2018-10-07T02:44:32.591Z,6.90
2018-10-07T02:45:32.590Z,7.00
2018-10-07T02:46:32.587Z,6.80
2018-10-07T02:47:32.588Z,7.30
2018-10-07T02:48:32.582Z,7.60
2018-10-07T02:49:32.577Z,7.80
2018-10-07T02:50:32.576Z,7.60
2018-10-07T02:51:32.573Z,7.70
2018-10-07T02:52:32.571Z,6.60
2018-10-07T02:53:32.567Z,7.10
2018-10-07T02:54:32.566Z,7.20
2018-10-07T02:55:32.562Z,7.20
2018-10-07T02:56:32.562Z,7.70
2018-10-07T02:57:32.559Z,7.50
2018-10-07T02:58:32.555Z,7.10
2018-10-07T02:59:32.554Z,7.30
2018-10-07T03:00:32.549Z,6.90
2018-10-07T03:01:32.545Z,7.00
2018-10-07T03:02:32.547Z,6.90
2018-10-07T03:03:32.548Z,7.40
2018-10-07T03:04:32.558Z,7.60
2018-10-07T03:05:32.540Z,7.20
2018-10-07T03:06:32.534Z,6.80
2018-10-07T03:07:32.533Z,7.30
2018-10-07T03:08:32.529Z,7.30
2018-10-07T03:09:32.527Z,7.50
2018-10-07T03:10:32.529Z,7.20
2018-10-07T03:11:32.528Z,7.10
2018-10-07T03:12:32.519Z,7.10
2018-10-07T03:13:32.519Z,6.80
2018-10-07T03:14:32.515Z,7.10
2018-10-07T03:15:32.512Z,6.10
2018-10-07T03:16:32.508Z,6.70
2018-10-07T03:17:32.508Z,7.10
2018-10-07T03:18:35.164Z,7.00
2018-10-07T03:19:32.502Z,7.20
2018-10-07T03:20:32.509Z,6.20
2018-10-07T03:21:32.497Z,6.40
2018-10-07T03:22:32.492Z,6.80
2018-10-07T03:23:32.492Z,6.40
2018-10-07T03:24:32.487Z,7.20
2018-10-07T03:25:32.485Z,6.60
2018-10-07T03:26:32.484Z,6.50
2018-10-07T03:27:32.479Z,7.50
2018-10-07T03:28:32.478Z,7.30
2018-10-07T03:29:32.502Z,7.40
2018-10-07T03:30:32.471Z,7.40
2018-10-07T03:31:32.472Z,6.90
2018-10-07T03:32:32.468Z,7.00
2018-10-07T03:33:32.467Z,7.20
2018-10-07T03:34:32.461Z,7.20
2018-10-07T03:35:32.462Z,6.80
2018-10-07T03:36:32.458Z,7.20
2018-10-07T03:37:32.454Z,6.50
2018-10-07T03:38:32.450Z,7.30
2018-10-07T03:39:32.446Z,6.70
2018-10-07T03:40:32.444Z,7.00
2018-10-07T03:41:32.442Z,7.10
2018-10-07T03:42:32.441Z,7.20
2018-10-07T03:43:32.439Z,7.10
2018-10-07T03:44:32.434Z,7.00
2018-10-07T03:45:32.433Z,7.30
2018-10-07T03:46:32.426Z,7.10
2018-10-07T03:47:32.425Z,7.10
2018-10-07T03:48:32.421Z,6.70
2018-10-07T03:49:32.420Z,7.00
2018-10-07T03:50:32.418Z,7.20
2018-10-07T03:51:32.412Z,6.90
2018-10-07T03:52:32.411Z,6.50
2018-10-07T03:53:32.407Z,6.60
2018-10-07T03:54:32.408Z,7.10
2018-10-07T03:55:32.401Z,7.00
2018-10-07T03:56:32.401Z,6.50
2018-10-07T03:57:32.396Z,6.80
2018-10-07T03:58:32.391Z,7.20
2018-10-07T03:59:32.391Z,7.10
2018-10-07T04:00:32.389Z,6.50
2018-10-07T04:01:32.389Z,6.50
2018-10-07T04:02:32.385Z,6.80
2018-10-07T04:03:32.383Z,7.00
2018-10-07T04:04:32.380Z,6.90
2018-10-07T04:05:32.375Z,7.30
2018-10-07T04:06:32.376Z,7.00
2018-10-07T04:07:32.368Z,7.30
2018-10-07T04:08:32.372Z,7.30
2018-10-07T04:09:32.363Z,7.30
2018-10-07T04:10:32.360Z,6.50
2018-10-07T04:11:32.356Z,7.10
2018-10-07T04:12:32.352Z,7.00
2018-10-07T04:13:32.351Z,6.60
2018-10-07T04:14:32.349Z,6.90
2018-10-07T04:15:32.346Z,6.80
2018-10-07T04:16:32.342Z,7.00
2018-10-07T04:17:32.348Z,6.80
2018-10-07T04:18:32.339Z,7.10
2018-10-07T04:19:32.334Z,6.60
2018-10-07T04:20:32.330Z,7.00
2018-10-07T04:21:32.339Z,7.70
2018-10-07T04:22:32.327Z,7.20
2018-10-07T04:23:32.321Z,6.50
2018-10-07T04:24:32.317Z,6.60
2018-10-07T04:25:32.314Z,6.80
2018-10-07T04:26:32.313Z,6.20
2018-10-07T04:27:32.313Z,6.90
2018-10-07T04:28:32.307Z,6.70
2018-10-07T04:29:32.303Z,7.30
2018-10-07T04:30:32.304Z,6.90
2018-10-07T04:31:32.301Z,7.70
2018-10-07T04:32:32.292Z,6.60
2018-10-07T04:33:32.290Z,7.00
2018-10-07T04:34:32.289Z,7.90
2018-10-07T04:35:32.287Z,7.80
2018-10-07T04:36:32.283Z,7.20
2018-10-07T04:37:32.279Z,7.60
2018-10-07T04:38:32.287Z,8.00
2018-10-07T04:39:32.286Z,8.00
2018-10-07T04:40:32.270Z,7.70
2018-10-07T04:41:32.269Z,8.30
2018-10-07T04:42:32.265Z,7.50
2018-10-07T04:43:32.262Z,7.50
2018-10-07T04:44:32.259Z,7.10
2018-10-07T04:45:32.255Z,7.30
2018-10-07T04:46:32.353Z,7.80
2018-10-07T04:47:32.251Z,7.70
2018-10-07T04:48:32.250Z,7.60
2018-10-07T04:49:32.255Z,7.80
2018-10-07T04:50:32.253Z,7.20
2018-10-07T04:51:32.243Z,7.10
2018-10-07T04:52:32.236Z,7.80
2018-10-07T04:53:32.235Z,7.50
2018-10-07T04:54:32.238Z,6.70
2018-10-07T04:55:32.226Z,6.80
2018-10-07T04:56:32.221Z,6.90
2018-10-07T04:57:32.220Z,7.40
2018-10-07T04:58:32.215Z,7.90
2018-10-07T04:59:32.221Z,6.70
2018-10-07T05:00:32.212Z,7.70
2018-10-07T05:01:32.209Z,7.50
2018-10-07T05:02:32.205Z,7.20
2018-10-07T05:03:32.201Z,7.60
2018-10-07T05:04:32.199Z,7.30
2018-10-07T05:05:32.197Z,7.60
2018-10-07T05:06:32.195Z,7.30
2018-10-07T05:07:32.194Z,6.90
2018-10-07T05:08:32.187Z,7.20
2018-10-07T05:09:32.187Z,7.10
2018-10-07T05:10:32.180Z,7.40
2018-10-07T05:11:32.186Z,6.90
2018-10-07T05:12:32.232Z,7.60
2018-10-07T05:13:32.185Z,7.50
2018-10-07T05:14:32.171Z,7.90
2018-10-07T05:15:32.170Z,7.50
2018-10-07T05:16:32.164Z,7.50
2018-10-07T05:17:32.161Z,7.30
2018-10-07T05:18:32.159Z,7.70
2018-10-07T05:19:32.158Z,7.40
2018-10-07T05:20:32.157Z,7.20
2018-10-07T05:21:32.152Z,7.20
2018-10-07T05:22:32.146Z,7.60
2018-10-07T05:23:32.145Z,7.70
2018-10-07T05:24:32.140Z,7.30
2018-10-07T05:25:32.138Z,7.50
2018-10-07T05:26:32.135Z,7.50
2018-10-07T05:27:32.134Z,7.50
2018-10-07T05:28:32.131Z,7.20
2018-10-07T05:29:32.139Z,7.10
2018-10-07T05:30:32.125Z,7.50
2018-10-07T05:31:32.131Z,7.40
2018-10-07T05:32:32.115Z,7.10
2018-10-07T05:33:32.230Z,7.00
2018-10-07T05:34:32.111Z,6.90
2018-10-07T05:35:32.108Z,7.20
2018-10-07T05:36:32.104Z,7.30
2018-10-07T05:37:32.105Z,7.50
2018-10-07T05:38:32.101Z,7.30
2018-10-07T05:39:32.105Z,7.50
2018-10-07T05:40:32.094Z,7.80
2018-10-07T05:41:32.096Z,8.10
2018-10-07T05:42:32.087Z,9.10
2018-10-07T05:43:32.086Z,9.60
2018-10-07T05:44:32.359Z,10.80
2018-10-07T05:45:32.079Z,10.00
2018-10-07T05:46:32.084Z,10.30
2018-10-07T05:47:32.075Z,11.90
2018-10-07T05:48:32.074Z,10.60
2018-10-07T05:49:32.067Z,11.70
2018-10-07T05:50:32.063Z,11.30
2018-10-07T05:51:32.059Z,12.60
2018-10-07T05:52:32.058Z,11.90
2018-10-07T05:53:32.055Z,11.70
2018-10-07T05:54:32.050Z,13.00
2018-10-07T05:55:32.086Z,11.60
2018-10-07T05:56:32.046Z,11.20
2018-10-07T05:57:32.044Z,12.60
2018-10-07T05:58:32.037Z,12.50
2018-10-07T05:59:32.034Z,11.90
2018-10-07T06:00:32.034Z,11.80
2018-10-07T06:01:32.042Z,12.30
2018-10-07T06:02:32.025Z,11.30
2018-10-07T06:03:32.023Z,11.00
2018-10-07T06:04:32.018Z,12.00
2018-10-07T06:05:32.016Z,10.90
2018-10-07T06:06:32.014Z,11.70
2018-10-07T06:07:32.008Z,12.10
2018-10-07T06:08:32.004Z,11.40
2018-10-07T06:09:32.001Z,11.60
2018-10-07T06:10:32.000Z,11.10
2018-10-07T06:11:31.996Z,10.90
2018-10-07T06:12:31.990Z,11.40
2018-10-07T06:13:31.989Z,11.30
2018-10-07T06:14:31.983Z,11.40
2018-10-07T06:15:31.983Z,11.30
2018-10-07T06:16:31.978Z,11.50
2018-10-07T06:17:31.977Z,12.30
2018-10-07T06:18:31.971Z,12.40
2018-10-07T06:19:31.969Z,13.40
2018-10-07T06:20:31.964Z,12.90
2018-10-07T06:21:32.035Z,12.90
2018-10-07T06:22:31.958Z,12.90
2018-10-07T06:23:31.954Z,13.40
2018-10-07T06:24:31.951Z,12.00
2018-10-07T06:25:31.945Z,13.40
2018-10-07T06:26:31.943Z,13.00
2018-10-07T06:27:31.940Z,12.00
2018-10-07T06:28:31.937Z,12.70
2018-10-07T06:29:31.937Z,12.70
2018-10-07T06:30:31.932Z,12.90
2018-10-07T06:31:31.925Z,12.50
2018-10-07T06:32:31.922Z,12.60
2018-10-07T06:33:31.919Z,11.50
2018-10-07T06:34:31.920Z,11.60
2018-10-07T06:35:31.921Z,12.40
2018-10-07T06:36:31.914Z,11.70
2018-10-07T06:37:31.906Z,11.30
2018-10-07T06:38:31.931Z,12.50
2018-10-07T06:39:31.900Z,11.60
2018-10-07T06:40:31.897Z,11.40
2018-10-07T06:41:31.894Z,11.90
2018-10-07T06:42:31.892Z,12.10
2018-10-07T06:43:31.887Z,12.40
2018-10-07T06:44:31.883Z,11.50
2018-10-07T06:45:31.926Z,12.00
2018-10-07T06:46:31.876Z,12.10
2018-10-07T06:47:31.876Z,11.70
2018-10-07T06:48:31.877Z,10.90
2018-10-07T06:49:31.869Z,11.80
2018-10-07T06:50:31.867Z,11.40
2018-10-07T06:51:31.863Z,11.50
2018-10-07T06:52:31.861Z,11.60
2018-10-07T06:53:31.858Z,11.40
2018-10-07T06:54:31.853Z,11.30
2018-10-07T06:55:31.853Z,12.00
2018-10-07T06:56:31.848Z,11.90
2018-10-07T06:57:31.847Z,11.80
2018-10-07T06:58:31.844Z,11.60
2018-10-07T06:59:31.848Z,11.60
2018-10-07T07:00:31.838Z,11.00
2018-10-07T07:01:31.836Z,10.70
2018-10-07T07:02:31.832Z,11.70
2018-10-07T07:03:31.833Z,11.20
2018-10-07T07:04:31.827Z,10.50
2018-10-07T07:05:31.822Z,10.50
2018-10-07T07:06:31.901Z,10.80
2018-10-07T07:07:31.836Z,10.90
2018-10-07T07:08:31.819Z,11.50
2018-10-07T07:09:31.816Z,11.00
2018-10-07T07:10:31.821Z,10.90
2018-10-07T07:11:31.808Z,11.10
2018-10-07T07:12:31.809Z,10.60
2018-10-07T07:13:31.804Z,10.10
2018-10-07T07:14:31.800Z,10.30
2018-10-07T07:15:31.800Z,10.90
2018-10-07T07:16:31.796Z,11.10
2018-10-07T07:17:31.795Z,10.30
2018-10-07T07:18:31.788Z,11.60
2018-10-07T07:19:31.789Z,10.10
2018-10-07T07:20:31.784Z,10.90
2018-10-07T07:21:31.785Z,10.90
2018-10-07T07:22:31.810Z,10.80
2018-10-07T07:23:31.780Z,11.80
2018-10-07T07:24:31.782Z,11.60
2018-10-07T07:25:31.773Z,11.20
2018-10-07T07:26:31.767Z,11.40
2018-10-07T07:27:31.767Z,12.00
2018-10-07T07:28:31.796Z,11.20
2018-10-07T07:29:31.761Z,11.00
2018-10-07T07:30:31.757Z,11.10
2018-10-07T07:31:31.829Z,12.50
2018-10-07T07:32:31.842Z,12.10
2018-10-07T07:33:31.753Z,11.80
2018-10-07T07:34:31.749Z,12.30
2018-10-07T07:35:31.745Z,10.70
2018-10-07T07:36:31.743Z,11.80
2018-10-07T07:37:31.742Z,11.60
2018-10-07T07:38:31.737Z,11.40
2018-10-07T07:39:31.737Z,11.50
2018-10-07T07:40:31.732Z,12.30
2018-10-07T07:41:31.736Z,12.20
2018-10-07T07:42:31.809Z,11.50
2018-10-07T07:43:31.727Z,33.50
2018-10-07T07:44:31.724Z,15.30
2018-10-07T07:45:31.722Z,12.70
2018-10-07T07:46:31.720Z,10.10
2018-10-07T07:47:31.716Z,10.90
2018-10-07T07:48:31.714Z,11.20
2018-10-07T07:49:31.719Z,11.10
2018-10-07T07:50:31.712Z,11.40
2018-10-07T07:51:31.707Z,11.90
2018-10-07T07:52:31.706Z,11.20
2018-10-07T07:53:31.706Z,10.90
2018-10-07T07:54:31.705Z,10.30
2018-10-07T07:55:31.699Z,10.70
2018-10-07T07:56:31.705Z,10.60
2018-10-07T07:57:31.696Z,10.80
2018-10-07T07:58:31.692Z,10.70
2018-10-07T07:59:31.692Z,9.90
2018-10-07T08:00:31.689Z,10.50
2018-10-07T08:01:31.687Z,10.50
2018-10-07T08:02:31.685Z,10.90
2018-10-07T08:03:31.683Z,11.20
2018-10-07T08:04:31.683Z,11.00
2018-10-07T08:05:31.683Z,10.40
2018-10-07T08:06:31.680Z,10.70
2018-10-07T08:07:31.677Z,11.60
2018-10-07T08:08:31.674Z,11.40
2018-10-07T08:09:31.671Z,11.00
2018-10-07T08:10:31.671Z,10.70
2018-10-07T08:11:31.666Z,10.80
2018-10-07T08:12:31.666Z,10.40
2018-10-07T08:13:31.662Z,10.30
2018-10-07T08:14:31.662Z,11.00
2018-10-07T08:15:31.659Z,10.70
2018-10-07T08:16:31.658Z,11.30
2018-10-07T08:17:31.687Z,10.70
2018-10-07T08:18:31.656Z,10.40
2018-10-07T08:19:31.657Z,10.90
2018-10-07T08:20:31.655Z,10.80
2018-10-07T08:21:31.648Z,10.30
2018-10-07T08:22:31.649Z,11.10
2018-10-07T08:23:31.720Z,11.70
2018-10-07T08:24:31.642Z,11.40
2018-10-07T08:25:31.652Z,11.20
2018-10-07T08:26:31.642Z,11.40
2018-10-07T08:27:31.651Z,10.80
2018-10-07T08:28:31.642Z,11.00
2018-10-07T08:29:31.708Z,11.30
2018-10-07T08:30:31.633Z,10.90
2018-10-07T08:31:31.633Z,11.90
2018-10-07T08:32:31.654Z,11.50
2018-10-07T08:33:31.657Z,10.90
2018-10-07T08:34:31.629Z,11.50
2018-10-07T08:35:31.627Z,10.90
2018-10-07T08:36:33.392Z,10.90
2018-10-07T08:37:31.700Z,11.20
2018-10-07T08:38:31.700Z,12.00
2018-10-07T08:39:31.620Z,11.70
2018-10-07T08:40:31.708Z,11.00
2018-10-07T08:41:31.663Z,11.30
2018-10-07T08:42:31.749Z,11.30
2018-10-07T08:43:31.715Z,11.40
2018-10-07T08:44:31.673Z,11.30
2018-10-07T08:45:32.671Z,11.40
2018-10-07T08:46:31.616Z,11.60
2018-10-07T08:47:31.606Z,11.50
2018-10-07T08:48:31.603Z,12.40
2018-10-07T08:49:31.601Z,13.20
2018-10-07T08:50:31.601Z,12.80
2018-10-07T08:51:31.601Z,12.40
2018-10-07T08:52:31.600Z,12.20
2018-10-07T08:53:31.607Z,13.00
2018-10-07T08:54:31.596Z,12.50
2018-10-07T08:55:31.593Z,14.00
2018-10-07T08:56:31.649Z,14.30
2018-10-07T08:57:31.589Z,13.90
2018-10-07T08:58:31.591Z,16.00
2018-10-07T08:59:31.584Z,15.50
2018-10-07T09:00:31.597Z,15.60
2018-10-07T09:01:31.580Z,16.60
2018-10-07T09:02:31.586Z,17.20
2018-10-07T09:03:31.601Z,17.30
2018-10-07T09:04:31.576Z,17.40
2018-10-07T09:05:31.573Z,20.70
2018-10-07T09:06:31.575Z,19.80
2018-10-07T09:07:31.572Z,18.80
2018-10-07T09:08:31.568Z,19.70
2018-10-07T09:09:31.565Z,20.10
2018-10-07T09:10:31.564Z,19.90
2018-10-07T09:11:31.569Z,20.90
2018-10-07T09:12:31.566Z,21.10
2018-10-07T09:13:31.561Z,22.40
2018-10-07T09:14:32.189Z,22.40
2018-10-07T09:15:31.558Z,23.10
2018-10-07T09:16:31.556Z,24.50
2018-10-07T09:17:31.554Z,22.80
2018-10-07T09:18:31.552Z,24.10
2018-10-07T09:19:31.548Z,24.80
2018-10-07T09:20:31.549Z,24.60
2018-10-07T09:21:31.547Z,27.60
2018-10-07T09:22:31.544Z,26.10
2018-10-07T09:23:31.541Z,26.50
2018-10-07T09:24:31.551Z,29.10
2018-10-07T09:25:31.543Z,28.00
2018-10-07T09:26:31.537Z,29.80
2018-10-07T09:27:31.644Z,29.90
2018-10-07T09:28:31.531Z,31.70
2018-10-07T09:29:31.533Z,33.00
2018-10-07T09:30:31.531Z,33.40
2018-10-07T09:31:31.534Z,37.20
2018-10-07T09:32:31.611Z,37.40
2018-10-07T09:33:31.548Z,38.40
2018-10-07T09:34:31.535Z,38.70
2018-10-07T09:35:31.522Z,37.90
2018-10-07T09:36:31.521Z,38.10
2018-10-07T09:37:31.520Z,41.40
2018-10-07T09:38:31.523Z,40.10
2018-10-07T09:39:31.567Z,38.70
2018-10-07T09:40:31.520Z,38.80
2018-10-07T09:41:31.511Z,39.50
2018-10-07T09:42:31.556Z,40.40
2018-10-07T09:43:31.511Z,40.40
2018-10-07T09:44:31.508Z,40.10
2018-10-07T09:45:31.507Z,39.40
2018-10-07T09:46:31.507Z,40.90
2018-10-07T09:47:31.504Z,40.90
2018-10-07T09:48:31.503Z,42.30
2018-10-07T09:49:31.498Z,41.00
2018-10-07T09:50:31.502Z,41.90
2018-10-07T09:51:31.503Z,39.90
2018-10-07T09:52:31.494Z,39.70
2018-10-07T09:53:31.495Z,43.00
2018-10-07T09:54:31.494Z,40.10
2018-10-07T09:55:31.586Z,41.50
2018-10-07T09:56:31.488Z,40.40
2018-10-07T09:57:31.489Z,42.80
2018-10-07T09:58:31.511Z,42.20
2018-10-07T09:59:31.487Z,40.90
2018-10-07T10:00:31.484Z,40.30
2018-10-07T10:01:31.490Z,42.30
2018-10-07T10:02:31.482Z,41.80
2018-10-07T10:03:31.479Z,39.30
2018-10-07T10:04:31.503Z,39.70
2018-10-07T10:05:31.476Z,41.00
2018-10-07T10:06:31.474Z,41.80
2018-10-07T10:07:31.473Z,40.30
2018-10-07T10:08:31.470Z,39.30
2018-10-07T10:09:31.470Z,38.90
2018-10-07T10:10:31.468Z,38.60
2018-10-07T10:11:31.468Z,40.60
2018-10-07T10:12:31.463Z,40.80
2018-10-07T10:13:31.468Z,40.30
2018-10-07T10:14:31.465Z,40.80
2018-10-07T10:15:31.479Z,39.30
2018-10-07T10:16:31.460Z,39.30
2018-10-07T10:17:31.498Z,39.70
2018-10-07T10:18:33.258Z,39.40
2018-10-07T10:19:31.570Z,37.70
2018-10-07T10:20:31.455Z,37.60
2018-10-07T10:21:31.468Z,37.90
2018-10-07T10:22:31.451Z,36.70
2018-10-07T10:23:31.454Z,38.20
2018-10-07T10:24:31.447Z,38.30
2018-10-07T10:25:31.497Z,38.30
2018-10-07T10:26:31.583Z,37.80
2018-10-07T10:27:31.507Z,37.50
2018-10-07T10:28:31.469Z,37.70
2018-10-07T10:29:31.512Z,38.40
2018-10-07T10:30:31.441Z,39.00
2018-10-07T10:31:31.464Z,38.60
2018-10-07T10:32:31.438Z,40.70
2018-10-07T10:33:31.460Z,40.60
2018-10-07T10:34:31.523Z,39.60
2018-10-07T10:35:31.437Z,35.70
2018-10-07T10:36:31.432Z,37.10
2018-10-07T10:37:31.434Z,35.30
2018-10-07T10:38:31.431Z,32.70
2018-10-07T10:39:31.505Z,28.00
2018-10-07T10:40:31.433Z,23.70
2018-10-07T10:41:31.556Z,22.90
2018-10-07T10:42:31.428Z,21.40
2018-10-07T10:43:31.429Z,19.20
2018-10-07T10:44:31.443Z,15.40
2018-10-07T10:45:31.423Z,14.80
2018-10-07T10:46:31.421Z,14.40
2018-10-07T10:47:31.464Z,11.90
2018-10-07T10:48:31.420Z,13.00
2018-10-07T10:49:31.422Z,11.50
2018-10-07T10:50:31.418Z,11.20
2018-10-07T10:51:31.416Z,10.70
2018-10-07T10:52:31.412Z,9.90
2018-10-07T10:53:31.410Z,8.80
2018-10-07T10:54:31.414Z,7.90
2018-10-07T10:55:31.408Z,8.20
2018-10-07T10:56:31.407Z,8.60
2018-10-07T10:57:31.404Z,7.00
2018-10-07T10:58:31.402Z,6.50
2018-10-07T10:59:31.401Z,7.20
2018-10-07T11:00:31.400Z,7.00
2018-10-07T11:01:31.396Z,6.90
2018-10-07T11:02:31.397Z,6.90
2018-10-07T11:03:31.395Z,7.30
2018-10-07T11:04:31.455Z,6.30
2018-10-07T11:05:31.392Z,6.10
2018-10-07T11:06:31.389Z,6.00
2018-10-07T11:07:31.387Z,5.40
2018-10-07T11:08:31.380Z,4.90
2018-10-07T11:09:31.379Z,5.60
2018-10-07T11:10:31.379Z,5.50
2018-10-07T11:11:31.387Z,5.40
2018-10-07T11:12:31.372Z,5.80
2018-10-07T11:13:31.369Z,6.40
2018-10-07T11:14:31.371Z,6.60
2018-10-07T11:15:31.376Z,6.80
2018-10-07T11:16:31.365Z,7.50
2018-10-07T11:17:31.361Z,8.00
2018-10-07T11:18:31.362Z,7.70
2018-10-07T11:19:31.385Z,8.10
2018-10-07T11:20:31.352Z,7.30
2018-10-07T11:21:31.351Z,7.80
2018-10-07T11:22:31.348Z,7.60
2018-10-07T11:23:31.350Z,7.30
2018-10-07T11:24:31.343Z,7.50
2018-10-07T11:25:31.339Z,7.40
2018-10-07T11:26:31.340Z,7.20
2018-10-07T11:27:31.337Z,6.80
2018-10-07T11:28:31.333Z,7.60
2018-10-07T11:29:31.328Z,8.10
2018-10-07T11:30:31.329Z,8.30
2018-10-07T11:31:31.324Z,8.60
2018-10-07T11:32:31.323Z,8.80
2018-10-07T11:33:31.319Z,8.90
2018-10-07T11:34:31.327Z,8.90
2018-10-07T11:35:31.313Z,9.70
2018-10-07T11:36:31.309Z,10.00
2018-10-07T11:37:31.309Z,10.10
2018-10-07T11:38:31.305Z,10.50
2018-10-07T11:39:31.301Z,9.90
2018-10-07T11:40:31.300Z,9.80
2018-10-07T11:41:31.298Z,8.50
2018-10-07T11:42:31.295Z,8.60
2018-10-07T11:43:31.291Z,7.10
2018-10-07T11:44:31.290Z,5.40
2018-10-07T11:45:31.285Z,5.60
2018-10-07T11:46:31.282Z,4.20
2018-10-07T11:47:31.281Z,3.60
2018-10-07T11:48:31.279Z,4.10
2018-10-07T11:49:31.277Z,3.90
2018-10-07T11:50:31.274Z,3.50
2018-10-07T11:51:31.270Z,3.40
2018-10-07T11:52:31.265Z,3.90
2018-10-07T11:53:31.265Z,3.80
2018-10-07T11:54:31.260Z,4.10
2018-10-07T11:55:31.260Z,3.90
2018-10-07T11:56:31.262Z,4.30
2018-10-07T11:57:31.255Z,5.40
2018-10-07T11:58:31.260Z,4.80
2018-10-07T11:59:31.249Z,5.30
2018-10-07T12:00:31.244Z,5.80
2018-10-07T12:01:31.241Z,6.10
2018-10-07T12:02:31.282Z,7.20
2018-10-07T12:03:31.236Z,8.40
2018-10-07T12:04:31.235Z,7.10
2018-10-07T12:05:31.233Z,9.00
2018-10-07T12:06:31.227Z,8.10
2018-10-07T12:07:31.225Z,7.70
2018-10-07T12:08:31.220Z,7.60
2018-10-07T12:09:31.222Z,7.80
2018-10-07T12:10:31.215Z,7.60
2018-10-07T12:11:31.217Z,7.60
2018-10-07T12:12:31.212Z,8.70
2018-10-07T12:13:31.207Z,7.80
2018-10-07T12:14:31.203Z,7.90
2018-10-07T12:15:31.202Z,8.60
2018-10-07T12:16:31.372Z,8.20
2018-10-07T12:17:31.195Z,8.50
2018-10-07T12:18:31.193Z,7.80
2018-10-07T12:19:31.190Z,7.70
2018-10-07T12:20:31.187Z,7.30
2018-10-07T12:21:31.187Z,8.20
2018-10-07T12:22:31.183Z,7.30
2018-10-07T12:23:31.177Z,7.40
2018-10-07T12:24:31.174Z,7.20
2018-10-07T12:25:31.174Z,7.40
2018-10-07T12:26:31.169Z,7.80
2018-10-07T12:27:31.173Z,7.30
2018-10-07T12:28:31.166Z,7.50
2018-10-07T12:29:31.163Z,7.70
2018-10-07T12:30:31.159Z,5.40
2018-10-07T12:31:31.160Z,7.10
2018-10-07T12:32:31.151Z,7.00
2018-10-07T12:33:31.156Z,7.20
2018-10-07T12:34:31.149Z,7.00
2018-10-07T12:35:31.151Z,7.50
2018-10-07T12:36:31.149Z,6.50
2018-10-07T12:37:31.139Z,7.50
2018-10-07T12:38:31.135Z,6.80
2018-10-07T12:39:31.133Z,7.30
2018-10-07T12:40:31.130Z,8.20
2018-10-07T12:41:31.126Z,8.10
2018-10-07T12:42:31.185Z,8.40
2018-10-07T12:43:31.122Z,8.60
2018-10-07T12:44:31.119Z,8.50
2018-10-07T12:45:31.115Z,9.40
2018-10-07T12:46:31.136Z,9.50
2018-10-07T12:47:31.120Z,9.20
2018-10-07T12:48:31.130Z,8.40
2018-10-07T12:49:31.103Z,9.20
2018-10-07T12:50:31.121Z,8.80
2018-10-07T12:51:31.097Z,9.50
2018-10-07T12:52:31.097Z,9.30
2018-10-07T12:53:31.091Z,8.30
2018-10-07T12:54:31.119Z,8.10
2018-10-07T12:55:31.084Z,8.00
2018-10-07T12:56:31.081Z,8.30
2018-10-07T12:57:31.078Z,9.60
2018-10-07T12:58:31.074Z,9.60
2018-10-07T12:59:31.086Z,9.10
2018-10-07T13:00:31.070Z,8.80
2018-10-07T13:01:31.064Z,9.00
2018-10-07T13:02:31.064Z,9.90
2018-10-07T13:03:31.059Z,8.30